sensor_id;sensor_type;location;lat;lon;timestamp;P1;durP1;ratioP1;P2;durP2;ratioP2
17026;SDS011;8630;50.500;12.164;2022-08-21T00:00:06;19.35;;;15.93;;
17026;SDS011;8630;50.500;12.164;2022-08-21T00:02:43;17.33;;;14.77;;
17026;SDS011;8630;50.500;12.164;2022-08-21T00:05:12;20.33;;;16.20;;
17026;SDS011;8630;50.500;12.164;2022-08-21T00:07:39;20.52;;;15.82;;
17026;SDS011;8630;50.500;12.164;2022-08-21T00:10:07;18.85;;;15.85;;
17026;SDS011;8630;50.500;12.164;2022-08-21T00:12:35;17.70;;;15.43;;
17026;SDS011;8630;50.500;12.164;2022-08-21T00:15:03;19.73;;;15.02;;
17026;SDS011;8630;50.500;12.164;2022-08-21T00:17:31;17.15;;;14.32;;
17026;SDS011;8630;50.500;12.164;2022-08-21T00:19:58;17.83;;;14.68;;
17026;SDS011;8630;50.500;12.164;2022-08-21T00:22:27;18.20;;;14.73;;
17026;SDS011;8630;50.500;12.164;2022-08-21T00:24:54;22.92;;;15.45;;
17026;SDS011;8630;50.500;12.164;2022-08-21T00:27:21;19.20;;;15.05;;
17026;SDS011;8630;50.500;12.164;2022-08-21T00:29:48;20.67;;;16.05;;
17026;SDS011;8630;50.500;12.164;2022-08-21T00:32:19;21.52;;;17.38;;
17026;SDS011;8630;50.500;12.164;2022-08-21T00:34:46;22.90;;;18.52;;
17026;SDS011;8630;50.500;12.164;2022-08-21T00:37:13;20.58;;;15.65;;
17026;SDS011;8630;50.500;12.164;2022-08-21T00:39:42;22.05;;;17.42;;
17026;SDS011;8630;50.500;12.164;2022-08-21T00:42:10;20.63;;;17.27;;
17026;SDS011;8630;50.500;12.164;2022-08-21T00:44:40;22.15;;;17.08;;
17026;SDS011;8630;50.500;12.164;2022-08-21T00:47:07;21.42;;;16.73;;
17026;SDS011;8630;50.500;12.164;2022-08-21T00:49:34;22.30;;;16.83;;
17026;SDS011;8630;50.500;12.164;2022-08-21T00:52:02;21.20;;;17.58;;
17026;SDS011;8630;50.500;12.164;2022-08-21T00:54:31;21.27;;;17.60;;
17026;SDS011;8630;50.500;12.164;2022-08-21T00:57:02;24.05;;;17.42;;
17026;SDS011;8630;50.500;12.164;2022-08-21T00:59:34;20.35;;;16.92;;
17026;SDS011;8630;50.500;12.164;2022-08-21T01:02:03;21.52;;;17.30;;
17026;SDS011;8630;50.500;12.164;2022-08-21T01:04:34;23.10;;;17.17;;
17026;SDS011;8630;50.500;12.164;2022-08-21T01:07:02;21.60;;;16.58;;
17026;SDS011;8630;50.500;12.164;2022-08-21T01:09:29;18.55;;;16.40;;
17026;SDS011;8630;50.500;12.164;2022-08-21T01:11:56;24.42;;;19.63;;
17026;SDS011;8630;50.500;12.164;2022-08-21T01:14:27;25.33;;;20.13;;
17026;SDS011;8630;50.500;12.164;2022-08-21T01:16:55;25.80;;;20.02;;
17026;SDS011;8630;50.500;12.164;2022-08-21T01:19:24;24.00;;;18.95;;
17026;SDS011;8630;50.500;12.164;2022-08-21T01:21:53;24.35;;;19.05;;
17026;SDS011;8630;50.500;12.164;2022-08-21T01:24:20;21.17;;;16.67;;
17026;SDS011;8630;50.500;12.164;2022-08-21T01:26:48;24.63;;;18.05;;
17026;SDS011;8630;50.500;12.164;2022-08-21T01:29:20;23.25;;;17.30;;
17026;SDS011;8630;50.500;12.164;2022-08-21T01:31:55;22.92;;;16.85;;
17026;SDS011;8630;50.500;12.164;2022-08-21T01:34:24;22.02;;;17.45;;
17026;SDS011;8630;50.500;12.164;2022-08-21T01:36:53;20.50;;;16.75;;
17026;SDS011;8630;50.500;12.164;2022-08-21T01:39:21;23.60;;;17.83;;
17026;SDS011;8630;50.500;12.164;2022-08-21T01:41:48;20.30;;;16.45;;
17026;SDS011;8630;50.500;12.164;2022-08-21T01:44:15;22.13;;;16.17;;
17026;SDS011;8630;50.500;12.164;2022-08-21T01:46:46;24.50;;;17.17;;
17026;SDS011;8630;50.500;12.164;2022-08-21T01:49:13;20.80;;;17.65;;
17026;SDS011;8630;50.500;12.164;2022-08-21T01:51:40;24.85;;;16.85;;
17026;SDS011;8630;50.500;12.164;2022-08-21T01:54:09;19.83;;;17.05;;
17026;SDS011;8630;50.500;12.164;2022-08-21T01:56:37;20.55;;;15.82;;
17026;SDS011;8630;50.500;12.164;2022-08-21T01:59:05;18.75;;;15.30;;
17026;SDS011;8630;50.500;12.164;2022-08-21T02:01:32;20.60;;;15.07;;
17026;SDS011;8630;50.500;12.164;2022-08-21T02:04:00;18.15;;;13.95;;
17026;SDS011;8630;50.500;12.164;2022-08-21T02:06:27;18.80;;;14.88;;
17026;SDS011;8630;50.500;12.164;2022-08-21T02:08:54;21.38;;;16.27;;
17026;SDS011;8630;50.500;12.164;2022-08-21T02:11:22;23.08;;;18.40;;
17026;SDS011;8630;50.500;12.164;2022-08-21T02:13:49;22.20;;;15.85;;
17026;SDS011;8630;50.500;12.164;2022-08-21T02:16:16;22.85;;;17.27;;
17026;SDS011;8630;50.500;12.164;2022-08-21T02:18:43;21.58;;;17.05;;
17026;SDS011;8630;50.500;12.164;2022-08-21T02:21:10;19.23;;;16.17;;
17026;SDS011;8630;50.500;12.164;2022-08-21T02:23:37;22.67;;;17.13;;
17026;SDS011;8630;50.500;12.164;2022-08-21T02:26:05;25.60;;;17.38;;
17026;SDS011;8630;50.500;12.164;2022-08-21T02:28:35;22.35;;;17.33;;
17026;SDS011;8630;50.500;12.164;2022-08-21T02:31:03;21.27;;;16.00;;
17026;SDS011;8630;50.500;12.164;2022-08-21T02:33:31;18.42;;;14.73;;
17026;SDS011;8630;50.500;12.164;2022-08-21T02:35:59;16.10;;;13.23;;
17026;SDS011;8630;50.500;12.164;2022-08-21T02:38:28;15.98;;;12.45;;
17026;SDS011;8630;50.500;12.164;2022-08-21T02:40:58;15.63;;;12.07;;
17026;SDS011;8630;50.500;12.164;2022-08-21T02:43:26;17.80;;;13.90;;
17026;SDS011;8630;50.500;12.164;2022-08-21T02:45:56;17.52;;;14.70;;
17026;SDS011;8630;50.500;12.164;2022-08-21T02:48:24;14.93;;;13.35;;
17026;SDS011;8630;50.500;12.164;2022-08-21T02:50:54;22.35;;;15.25;;
17026;SDS011;8630;50.500;12.164;2022-08-21T02:53:23;17.98;;;14.77;;
17026;SDS011;8630;50.500;12.164;2022-08-21T02:55:51;19.25;;;15.48;;
17026;SDS011;8630;50.500;12.164;2022-08-21T02:58:19;19.52;;;14.73;;
17026;SDS011;8630;50.500;12.164;2022-08-21T03:00:48;18.98;;;15.10;;
17026;SDS011;8630;50.500;12.164;2022-08-21T03:03:17;18.13;;;15.13;;
17026;SDS011;8630;50.500;12.164;2022-08-21T03:05:46;20.67;;;16.60;;
17026;SDS011;8630;50.500;12.164;2022-08-21T03:08:14;21.48;;;16.50;;
17026;SDS011;8630;50.500;12.164;2022-08-21T03:10:43;22.83;;;17.15;;
17026;SDS011;8630;50.500;12.164;2022-08-21T03:13:11;24.23;;;17.15;;
17026;SDS011;8630;50.500;12.164;2022-08-21T03:15:39;24.05;;;17.00;;
17026;SDS011;8630;50.500;12.164;2022-08-21T03:18:07;21.83;;;16.90;;
17026;SDS011;8630;50.500;12.164;2022-08-21T03:20:37;26.00;;;18.02;;
17026;SDS011;8630;50.500;12.164;2022-08-21T03:23:05;23.67;;;17.30;;
17026;SDS011;8630;50.500;12.164;2022-08-21T03:25:33;24.42;;;17.63;;
17026;SDS011;8630;50.500;12.164;2022-08-21T03:28:01;25.40;;;17.20;;
17026;SDS011;8630;50.500;12.164;2022-08-21T03:30:31;23.75;;;18.15;;
17026;SDS011;8630;50.500;12.164;2022-08-21T03:32:58;23.92;;;18.35;;
17026;SDS011;8630;50.500;12.164;2022-08-21T03:35:26;25.67;;;18.05;;
17026;SDS011;8630;50.500;12.164;2022-08-21T03:37:55;24.45;;;17.40;;
17026;SDS011;8630;50.500;12.164;2022-08-21T03:40:23;26.75;;;19.52;;
17026;SDS011;8630;50.500;12.164;2022-08-21T03:42:50;25.77;;;18.85;;
17026;SDS011;8630;50.500;12.164;2022-08-21T03:45:18;24.80;;;18.75;;
17026;SDS011;8630;50.500;12.164;2022-08-21T03:47:53;27.38;;;19.13;;
17026;SDS011;8630;50.500;12.164;2022-08-21T03:50:23;28.65;;;18.42;;
17026;SDS011;8630;50.500;12.164;2022-08-21T03:52:51;26.70;;;19.45;;
17026;SDS011;8630;50.500;12.164;2022-08-21T03:55:20;26.08;;;19.20;;
17026;SDS011;8630;50.500;12.164;2022-08-21T03:57:47;27.85;;;19.30;;
17026;SDS011;8630;50.500;12.164;2022-08-21T04:00:16;30.50;;;18.67;;
17026;SDS011;8630;50.500;12.164;2022-08-21T04:02:45;27.20;;;19.45;;
17026;SDS011;8630;50.500;12.164;2022-08-21T04:05:13;29.70;;;19.85;;
17026;SDS011;8630;50.500;12.164;2022-08-21T04:07:52;26.75;;;20.27;;
17026;SDS011;8630;50.500;12.164;2022-08-21T04:10:21;30.58;;;20.30;;
17026;SDS011;8630;50.500;12.164;2022-08-21T04:12:48;32.05;;;21.58;;
17026;SDS011;8630;50.500;12.164;2022-08-21T04:15:15;29.50;;;20.95;;
17026;SDS011;8630;50.500;12.164;2022-08-21T04:17:42;27.27;;;20.00;;
17026;SDS011;8630;50.500;12.164;2022-08-21T04:20:09;32.50;;;20.83;;
17026;SDS011;8630;50.500;12.164;2022-08-21T04:22:39;31.20;;;20.48;;
17026;SDS011;8630;50.500;12.164;2022-08-21T04:25:07;31.60;;;20.27;;
17026;SDS011;8630;50.500;12.164;2022-08-21T04:27:35;28.75;;;20.25;;
17026;SDS011;8630;50.500;12.164;2022-08-21T04:30:05;30.80;;;20.10;;
17026;SDS011;8630;50.500;12.164;2022-08-21T04:32:34;29.02;;;19.92;;
17026;SDS011;8630;50.500;12.164;2022-08-21T04:35:02;30.08;;;21.13;;
17026;SDS011;8630;50.500;12.164;2022-08-21T04:37:30;31.88;;;20.83;;
17026;SDS011;8630;50.500;12.164;2022-08-21T04:39:58;35.33;;;22.20;;
17026;SDS011;8630;50.500;12.164;2022-08-21T04:42:25;31.50;;;21.48;;
17026;SDS011;8630;50.500;12.164;2022-08-21T04:44:54;34.22;;;21.48;;
17026;SDS011;8630;50.500;12.164;2022-08-21T04:47:21;31.75;;;20.98;;
17026;SDS011;8630;50.500;12.164;2022-08-21T04:49:48;33.50;;;22.65;;
17026;SDS011;8630;50.500;12.164;2022-08-21T04:52:17;35.25;;;22.45;;
17026;SDS011;8630;50.500;12.164;2022-08-21T04:54:48;35.85;;;23.20;;
17026;SDS011;8630;50.500;12.164;2022-08-21T04:57:16;33.80;;;22.75;;
17026;SDS011;8630;50.500;12.164;2022-08-21T04:59:45;33.33;;;22.08;;
17026;SDS011;8630;50.500;12.164;2022-08-21T05:02:15;33.83;;;22.90;;
17026;SDS011;8630;50.500;12.164;2022-08-21T05:04:43;37.90;;;23.38;;
17026;SDS011;8630;50.500;12.164;2022-08-21T05:07:15;34.67;;;23.25;;
17026;SDS011;8630;50.500;12.164;2022-08-21T05:09:46;33.97;;;22.55;;
17026;SDS011;8630;50.500;12.164;2022-08-21T05:12:13;35.58;;;24.02;;
17026;SDS011;8630;50.500;12.164;2022-08-21T05:14:40;37.45;;;23.10;;
17026;SDS011;8630;50.500;12.164;2022-08-21T05:17:08;36.53;;;23.23;;
17026;SDS011;8630;50.500;12.164;2022-08-21T05:19:36;36.70;;;23.70;;
17026;SDS011;8630;50.500;12.164;2022-08-21T05:22:03;35.95;;;22.55;;
17026;SDS011;8630;50.500;12.164;2022-08-21T05:24:30;31.33;;;21.88;;
17026;SDS011;8630;50.500;12.164;2022-08-21T05:26:58;30.58;;;22.23;;
17026;SDS011;8630;50.500;12.164;2022-08-21T05:29:25;32.17;;;21.98;;
17026;SDS011;8630;50.500;12.164;2022-08-21T05:31:54;31.63;;;22.55;;
17026;SDS011;8630;50.500;12.164;2022-08-21T05:34:22;33.80;;;22.67;;
17026;SDS011;8630;50.500;12.164;2022-08-21T05:36:50;33.88;;;23.15;;
17026;SDS011;8630;50.500;12.164;2022-08-21T05:39:17;34.40;;;23.05;;
17026;SDS011;8630;50.500;12.164;2022-08-21T05:41:46;32.80;;;21.77;;
17026;SDS011;8630;50.500;12.164;2022-08-21T05:44:14;32.40;;;21.77;;
17026;SDS011;8630;50.500;12.164;2022-08-21T05:46:41;31.58;;;21.77;;
17026;SDS011;8630;50.500;12.164;2022-08-21T05:49:08;30.88;;;21.20;;
17026;SDS011;8630;50.500;12.164;2022-08-21T05:51:36;30.95;;;22.55;;
17026;SDS011;8630;50.500;12.164;2022-08-21T05:54:07;31.98;;;22.58;;
17026;SDS011;8630;50.500;12.164;2022-08-21T05:56:34;34.13;;;22.55;;
17026;SDS011;8630;50.500;12.164;2022-08-21T05:59:03;32.15;;;21.98;;
17026;SDS011;8630;50.500;12.164;2022-08-21T06:01:30;32.33;;;22.35;;
17026;SDS011;8630;50.500;12.164;2022-08-21T06:03:57;29.75;;;21.85;;
17026;SDS011;8630;50.500;12.164;2022-08-21T06:06:24;29.50;;;22.45;;
17026;SDS011;8630;50.500;12.164;2022-08-21T06:08:51;32.60;;;23.48;;
17026;SDS011;8630;50.500;12.164;2022-08-21T06:11:20;27.52;;;21.33;;
17026;SDS011;8630;50.500;12.164;2022-08-21T06:13:47;29.77;;;21.10;;
17026;SDS011;8630;50.500;12.164;2022-08-21T06:16:14;29.23;;;21.40;;
17026;SDS011;8630;50.500;12.164;2022-08-21T06:18:42;32.00;;;21.95;;
17026;SDS011;8630;50.500;12.164;2022-08-21T06:21:10;39.58;;;26.40;;
17026;SDS011;8630;50.500;12.164;2022-08-21T06:23:38;31.35;;;22.30;;
17026;SDS011;8630;50.500;12.164;2022-08-21T06:26:06;32.20;;;22.92;;
17026;SDS011;8630;50.500;12.164;2022-08-21T06:28:36;34.28;;;24.13;;
17026;SDS011;8630;50.500;12.164;2022-08-21T06:31:09;30.25;;;21.95;;
17026;SDS011;8630;50.500;12.164;2022-08-21T06:33:37;30.35;;;22.40;;
17026;SDS011;8630;50.500;12.164;2022-08-21T06:36:04;30.65;;;22.20;;
17026;SDS011;8630;50.500;12.164;2022-08-21T06:38:31;29.40;;;20.98;;
17026;SDS011;8630;50.500;12.164;2022-08-21T06:40:58;30.63;;;21.65;;
17026;SDS011;8630;50.500;12.164;2022-08-21T06:43:26;31.50;;;21.17;;
17026;SDS011;8630;50.500;12.164;2022-08-21T06:45:55;30.08;;;21.60;;
17026;SDS011;8630;50.500;12.164;2022-08-21T06:48:22;27.05;;;20.48;;
17026;SDS011;8630;50.500;12.164;2022-08-21T06:50:49;31.38;;;22.63;;
17026;SDS011;8630;50.500;12.164;2022-08-21T06:53:17;28.95;;;20.83;;
17026;SDS011;8630;50.500;12.164;2022-08-21T06:55:46;33.30;;;22.48;;
17026;SDS011;8630;50.500;12.164;2022-08-21T06:58:13;29.13;;;21.23;;
17026;SDS011;8630;50.500;12.164;2022-08-21T07:00:41;28.65;;;22.25;;
17026;SDS011;8630;50.500;12.164;2022-08-21T07:03:23;30.33;;;23.30;;
17026;SDS011;8630;50.500;12.164;2022-08-21T07:05:52;31.88;;;22.65;;
17026;SDS011;8630;50.500;12.164;2022-08-21T07:08:19;29.80;;;22.13;;
17026;SDS011;8630;50.500;12.164;2022-08-21T07:10:47;30.88;;;22.60;;
17026;SDS011;8630;50.500;12.164;2022-08-21T07:13:15;27.95;;;19.85;;
17026;SDS011;8630;50.500;12.164;2022-08-21T07:15:43;28.20;;;20.30;;
17026;SDS011;8630;50.500;12.164;2022-08-21T07:18:11;25.60;;;18.95;;
17026;SDS011;8630;50.500;12.164;2022-08-21T07:20:41;25.25;;;18.42;;
17026;SDS011;8630;50.500;12.164;2022-08-21T07:23:09;26.17;;;18.77;;
17026;SDS011;8630;50.500;12.164;2022-08-21T07:25:38;22.27;;;18.13;;
17026;SDS011;8630;50.500;12.164;2022-08-21T07:28:05;24.50;;;18.30;;
17026;SDS011;8630;50.500;12.164;2022-08-21T07:30:32;25.45;;;17.83;;
17026;SDS011;8630;50.500;12.164;2022-08-21T07:33:00;25.30;;;17.92;;
17026;SDS011;8630;50.500;12.164;2022-08-21T07:35:27;23.85;;;17.30;;
17026;SDS011;8630;50.500;12.164;2022-08-21T07:37:55;22.58;;;17.67;;
17026;SDS011;8630;50.500;12.164;2022-08-21T07:40:22;23.40;;;17.70;;
17026;SDS011;8630;50.500;12.164;2022-08-21T07:42:49;19.42;;;15.55;;
17026;SDS011;8630;50.500;12.164;2022-08-21T07:45:17;21.30;;;16.42;;
17026;SDS011;8630;50.500;12.164;2022-08-21T07:47:45;17.42;;;14.45;;
17026;SDS011;8630;50.500;12.164;2022-08-21T07:50:13;19.25;;;14.73;;
17026;SDS011;8630;50.500;12.164;2022-08-21T07:52:40;16.60;;;13.55;;
17026;SDS011;8630;50.500;12.164;2022-08-21T07:55:10;16.15;;;13.70;;
17026;SDS011;8630;50.500;12.164;2022-08-21T07:57:39;16.13;;;13.25;;
17026;SDS011;8630;50.500;12.164;2022-08-21T08:00:08;15.30;;;13.13;;
17026;SDS011;8630;50.500;12.164;2022-08-21T08:02:40;14.93;;;13.18;;
17026;SDS011;8630;50.500;12.164;2022-08-21T08:05:10;15.20;;;13.60;;
17026;SDS011;8630;50.500;12.164;2022-08-21T08:07:38;17.30;;;13.80;;
17026;SDS011;8630;50.500;12.164;2022-08-21T08:10:05;16.48;;;13.57;;
17026;SDS011;8630;50.500;12.164;2022-08-21T08:12:35;16.73;;;14.10;;
17026;SDS011;8630;50.500;12.164;2022-08-21T08:15:03;16.52;;;13.45;;
17026;SDS011;8630;50.500;12.164;2022-08-21T08:17:32;13.93;;;12.18;;
17026;SDS011;8630;50.500;12.164;2022-08-21T08:19:59;16.67;;;11.82;;
17026;SDS011;8630;50.500;12.164;2022-08-21T08:22:27;14.98;;;12.35;;
17026;SDS011;8630;50.500;12.164;2022-08-21T08:24:54;13.35;;;11.43;;
17026;SDS011;8630;50.500;12.164;2022-08-21T08:27:21;13.90;;;11.68;;
17026;SDS011;8630;50.500;12.164;2022-08-21T08:29:50;13.75;;;11.32;;
17026;SDS011;8630;50.500;12.164;2022-08-21T08:32:17;11.80;;;9.77;;
17026;SDS011;8630;50.500;12.164;2022-08-21T08:34:44;11.77;;;10.27;;
17026;SDS011;8630;50.500;12.164;2022-08-21T08:37:13;9.98;;;8.73;;
17026;SDS011;8630;50.500;12.164;2022-08-21T08:39:41;10.27;;;7.30;;
17026;SDS011;8630;50.500;12.164;2022-08-21T08:42:09;13.20;;;7.78;;
17026;SDS011;8630;50.500;12.164;2022-08-21T08:44:39;8.63;;;6.88;;
17026;SDS011;8630;50.500;12.164;2022-08-21T08:47:09;11.00;;;7.78;;
17026;SDS011;8630;50.500;12.164;2022-08-21T08:49:39;9.93;;;8.02;;
17026;SDS011;8630;50.500;12.164;2022-08-21T08:52:15;9.95;;;7.93;;
17026;SDS011;8630;50.500;12.164;2022-08-21T08:54:51;9.00;;;7.22;;
17026;SDS011;8630;50.500;12.164;2022-08-21T08:57:24;7.78;;;7.05;;
17026;SDS011;8630;50.500;12.164;2022-08-21T08:59:52;9.75;;;7.80;;
17026;SDS011;8630;50.500;12.164;2022-08-21T09:02:24;11.43;;;6.82;;
17026;SDS011;8630;50.500;12.164;2022-08-21T09:04:53;8.55;;;7.63;;
17026;SDS011;8630;50.500;12.164;2022-08-21T09:07:22;10.60;;;8.02;;
17026;SDS011;8630;50.500;12.164;2022-08-21T09:10:02;7.50;;;6.68;;
17026;SDS011;8630;50.500;12.164;2022-08-21T09:12:38;8.57;;;6.75;;
17026;SDS011;8630;50.500;12.164;2022-08-21T09:15:13;7.10;;;6.40;;
17026;SDS011;8630;50.500;12.164;2022-08-21T09:20:47;9.30;;;6.30;;
17026;SDS011;8630;50.500;12.164;2022-08-21T09:23:25;5.80;;;5.30;;
17026;SDS011;8630;50.500;12.164;2022-08-21T09:26:02;7.32;;;5.40;;
17026;SDS011;8630;50.500;12.164;2022-08-21T09:28:33;7.53;;;5.78;;
17026;SDS011;8630;50.500;12.164;2022-08-21T09:31:02;6.10;;;5.28;;
17026;SDS011;8630;50.500;12.164;2022-08-21T09:33:33;6.13;;;5.38;;
17026;SDS011;8630;50.500;12.164;2022-08-21T09:36:00;7.65;;;5.88;;
17026;SDS011;8630;50.500;12.164;2022-08-21T09:38:28;5.57;;;5.07;;
17026;SDS011;8630;50.500;12.164;2022-08-21T09:40:59;4.80;;;4.30;;
17026;SDS011;8630;50.500;12.164;2022-08-21T09:43:28;4.53;;;3.80;;
17026;SDS011;8630;50.500;12.164;2022-08-21T09:48:49;4.45;;;3.70;;
17026;SDS011;8630;50.500;12.164;2022-08-21T09:51:18;4.25;;;3.70;;
17026;SDS011;8630;50.500;12.164;2022-08-21T09:53:48;5.18;;;3.92;;
17026;SDS011;8630;50.500;12.164;2022-08-21T09:56:20;4.80;;;3.88;;
17026;SDS011;8630;50.500;12.164;2022-08-21T09:59:13;4.93;;;3.72;;
17026;SDS011;8630;50.500;12.164;2022-08-21T10:01:43;3.75;;;3.45;;
17026;SDS011;8630;50.500;12.164;2022-08-21T10:04:12;5.55;;;4.03;;
17026;SDS011;8630;50.500;12.164;2022-08-21T10:06:40;5.90;;;4.38;;
17026;SDS011;8630;50.500;12.164;2022-08-21T10:09:09;4.93;;;4.43;;
17026;SDS011;8630;50.500;12.164;2022-08-21T10:11:38;4.35;;;3.95;;
17026;SDS011;8630;50.500;12.164;2022-08-21T10:14:10;4.30;;;3.38;;
17026;SDS011;8630;50.500;12.164;2022-08-21T10:16:59;3.38;;;3.08;;
17026;SDS011;8630;50.500;12.164;2022-08-21T10:19:36;3.72;;;3.42;;
17026;SDS011;8630;50.500;12.164;2022-08-21T10:22:13;3.47;;;3.13;;
17026;SDS011;8630;50.500;12.164;2022-08-21T10:24:52;5.18;;;4.38;;
17026;SDS011;8630;50.500;12.164;2022-08-21T10:27:34;4.28;;;3.88;;
17026;SDS011;8630;50.500;12.164;2022-08-21T10:30:11;3.70;;;3.38;;
17026;SDS011;8630;50.500;12.164;2022-08-21T10:32:53;4.72;;;3.60;;
17026;SDS011;8630;50.500;12.164;2022-08-21T10:35:33;4.25;;;3.38;;
17026;SDS011;8630;50.500;12.164;2022-08-21T10:41:24;3.40;;;3.05;;
17026;SDS011;8630;50.500;12.164;2022-08-21T10:44:07;3.40;;;3.10;;
17026;SDS011;8630;50.500;12.164;2022-08-21T10:46:53;4.43;;;3.35;;
17026;SDS011;8630;50.500;12.164;2022-08-21T10:49:28;4.93;;;3.60;;
17026;SDS011;8630;50.500;12.164;2022-08-21T10:52:24;4.25;;;3.67;;
17026;SDS011;8630;50.500;12.164;2022-08-21T10:55:02;3.63;;;3.33;;
17026;SDS011;8630;50.500;12.164;2022-08-21T10:57:34;4.35;;;3.40;;
17026;SDS011;8630;50.500;12.164;2022-08-21T11:00:07;7.78;;;3.75;;
17026;SDS011;8630;50.500;12.164;2022-08-21T11:02:38;3.30;;;3.00;;
17026;SDS011;8630;50.500;12.164;2022-08-21T11:05:10;3.50;;;3.20;;
17026;SDS011;8630;50.500;12.164;2022-08-21T11:07:43;2.80;;;2.60;;
17026;SDS011;8630;50.500;12.164;2022-08-21T11:10:15;3.47;;;3.17;;
17026;SDS011;8630;50.500;12.164;2022-08-21T11:12:47;4.88;;;3.17;;
17026;SDS011;8630;50.500;12.164;2022-08-21T11:15:26;4.88;;;2.88;;
17026;SDS011;8630;50.500;12.164;2022-08-21T11:18:00;3.67;;;2.80;;
17026;SDS011;8630;50.500;12.164;2022-08-21T11:20:33;2.85;;;2.60;;
17026;SDS011;8630;50.500;12.164;2022-08-21T11:23:14;6.75;;;3.58;;
17026;SDS011;8630;50.500;12.164;2022-08-21T11:25:45;3.92;;;3.22;;
17026;SDS011;8630;50.500;12.164;2022-08-21T11:28:20;5.53;;;3.42;;
17026;SDS011;8630;50.500;12.164;2022-08-21T11:30:52;4.82;;;3.30;;
17026;SDS011;8630;50.500;12.164;2022-08-21T11:33:31;5.10;;;3.28;;
17026;SDS011;8630;50.500;12.164;2022-08-21T11:36:15;5.32;;;3.25;;
17026;SDS011;8630;50.500;12.164;2022-08-21T11:38:51;4.15;;;2.97;;
17026;SDS011;8630;50.500;12.164;2022-08-21T11:41:26;3.30;;;2.85;;
17026;SDS011;8630;50.500;12.164;2022-08-21T11:44:00;3.60;;;2.70;;
17026;SDS011;8630;50.500;12.164;2022-08-21T11:46:36;3.20;;;2.80;;
17026;SDS011;8630;50.500;12.164;2022-08-21T11:49:23;3.58;;;2.85;;
17026;SDS011;8630;50.500;12.164;2022-08-21T11:52:09;4.05;;;2.75;;
17026;SDS011;8630;50.500;12.164;2022-08-21T11:54:44;3.10;;;2.80;;
17026;SDS011;8630;50.500;12.164;2022-08-21T11:57:17;3.75;;;2.78;;
17026;SDS011;8630;50.500;12.164;2022-08-21T11:59:49;3.83;;;2.55;;
17026;SDS011;8630;50.500;12.164;2022-08-21T12:02:24;4.78;;;2.55;;
17026;SDS011;8630;50.500;12.164;2022-08-21T12:04:59;2.78;;;2.45;;
17026;SDS011;8630;50.500;12.164;2022-08-21T12:07:30;4.13;;;3.00;;
17026;SDS011;8630;50.500;12.164;2022-08-21T12:10:02;3.10;;;2.45;;
17026;SDS011;8630;50.500;12.164;2022-08-21T12:12:32;3.03;;;2.72;;
17026;SDS011;8630;50.500;12.164;2022-08-21T12:15:06;6.50;;;2.88;;
17026;SDS011;8630;50.500;12.164;2022-08-21T12:17:52;3.25;;;2.72;;
17026;SDS011;8630;50.500;12.164;2022-08-21T12:23:18;3.42;;;2.53;;
17026;SDS011;8630;50.500;12.164;2022-08-21T12:28:51;5.00;;;3.00;;
17026;SDS011;8630;50.500;12.164;2022-08-21T12:31:29;4.70;;;2.78;;
17026;SDS011;8630;50.500;12.164;2022-08-21T12:33:57;3.40;;;2.75;;
17026;SDS011;8630;50.500;12.164;2022-08-21T12:36:29;3.10;;;2.70;;
17026;SDS011;8630;50.500;12.164;2022-08-21T12:39:11;3.38;;;2.88;;
17026;SDS011;8630;50.500;12.164;2022-08-21T12:41:45;3.95;;;3.00;;
17026;SDS011;8630;50.500;12.164;2022-08-21T12:44:14;4.22;;;2.58;;
17026;SDS011;8630;50.500;12.164;2022-08-21T12:46:46;2.65;;;2.45;;
17026;SDS011;8630;50.500;12.164;2022-08-21T12:49:19;3.80;;;2.67;;
17026;SDS011;8630;50.500;12.164;2022-08-21T12:51:54;3.30;;;2.67;;
17026;SDS011;8630;50.500;12.164;2022-08-21T12:54:24;2.80;;;2.40;;
17026;SDS011;8630;50.500;12.164;2022-08-21T12:56:57;2.30;;;2.10;;
17026;SDS011;8630;50.500;12.164;2022-08-21T12:59:26;3.70;;;2.70;;
17026;SDS011;8630;50.500;12.164;2022-08-21T13:01:54;3.30;;;2.70;;
17026;SDS011;8630;50.500;12.164;2022-08-21T13:04:23;7.55;;;3.10;;
17026;SDS011;8630;50.500;12.164;2022-08-21T13:06:58;3.15;;;2.85;;
17026;SDS011;8630;50.500;12.164;2022-08-21T13:09:27;4.00;;;2.53;;
17026;SDS011;8630;50.500;12.164;2022-08-21T13:11:59;2.90;;;2.58;;
17026;SDS011;8630;50.500;12.164;2022-08-21T13:14:28;3.05;;;2.80;;
17026;SDS011;8630;50.500;12.164;2022-08-21T13:16:58;3.70;;;2.90;;
17026;SDS011;8630;50.500;12.164;2022-08-21T13:19:31;3.88;;;2.60;;
17026;SDS011;8630;50.500;12.164;2022-08-21T13:21:59;3.78;;;2.90;;
17026;SDS011;8630;50.500;12.164;2022-08-21T13:24:28;3.67;;;2.75;;
17026;SDS011;8630;50.500;12.164;2022-08-21T13:26:56;4.13;;;2.60;;
17026;SDS011;8630;50.500;12.164;2022-08-21T13:29:27;3.40;;;3.00;;
17026;SDS011;8630;50.500;12.164;2022-08-21T13:32:00;3.30;;;2.95;;
17026;SDS011;8630;50.500;12.164;2022-08-21T13:34:34;4.88;;;2.80;;
17026;SDS011;8630;50.500;12.164;2022-08-21T13:37:03;3.30;;;2.95;;
17026;SDS011;8630;50.500;12.164;2022-08-21T13:39:32;3.35;;;2.70;;
17026;SDS011;8630;50.500;12.164;2022-08-21T13:42:01;3.00;;;2.70;;
17026;SDS011;8630;50.500;12.164;2022-08-21T13:44:34;4.60;;;3.05;;
17026;SDS011;8630;50.500;12.164;2022-08-21T13:47:03;6.55;;;2.85;;
17026;SDS011;8630;50.500;12.164;2022-08-21T13:49:34;6.93;;;3.17;;
17026;SDS011;8630;50.500;12.164;2022-08-21T13:52:03;4.35;;;3.00;;
17026;SDS011;8630;50.500;12.164;2022-08-21T13:54:40;3.90;;;2.78;;
17026;SDS011;8630;50.500;12.164;2022-08-21T13:57:25;3.85;;;2.63;;
17026;SDS011;8630;50.500;12.164;2022-08-21T14:00:09;4.65;;;2.90;;
17026;SDS011;8630;50.500;12.164;2022-08-21T14:02:39;4.60;;;3.03;;
17026;SDS011;8630;50.500;12.164;2022-08-21T14:05:08;3.17;;;2.88;;
17026;SDS011;8630;50.500;12.164;2022-08-21T14:07:42;3.00;;;2.70;;
17026;SDS011;8630;50.500;12.164;2022-08-21T14:10:11;3.30;;;2.65;;
17026;SDS011;8630;50.500;12.164;2022-08-21T14:12:48;4.20;;;3.08;;
17026;SDS011;8630;50.500;12.164;2022-08-21T14:15:18;4.05;;;3.08;;
17026;SDS011;8630;50.500;12.164;2022-08-21T14:17:49;3.85;;;2.83;;
17026;SDS011;8630;50.500;12.164;2022-08-21T14:20:25;3.75;;;2.78;;
17026;SDS011;8630;50.500;12.164;2022-08-21T14:22:53;3.92;;;2.60;;
17026;SDS011;8630;50.500;12.164;2022-08-21T14:25:27;3.25;;;2.80;;
17026;SDS011;8630;50.500;12.164;2022-08-21T14:28:04;4.13;;;2.92;;
17026;SDS011;8630;50.500;12.164;2022-08-21T14:30:40;2.72;;;2.53;;
17026;SDS011;8630;50.500;12.164;2022-08-21T14:33:10;3.83;;;2.65;;
17026;SDS011;8630;50.500;12.164;2022-08-21T14:35:40;3.85;;;2.92;;
17026;SDS011;8630;50.500;12.164;2022-08-21T14:38:11;5.03;;;3.00;;
17026;SDS011;8630;50.500;12.164;2022-08-21T14:40:40;4.32;;;2.80;;
17026;SDS011;8630;50.500;12.164;2022-08-21T14:43:09;3.60;;;3.00;;
17026;SDS011;8630;50.500;12.164;2022-08-21T14:45:36;4.15;;;3.20;;
17026;SDS011;8630;50.500;12.164;2022-08-21T14:48:06;3.47;;;2.67;;
17026;SDS011;8630;50.500;12.164;2022-08-21T14:50:33;4.38;;;2.70;;
17026;SDS011;8630;50.500;12.164;2022-08-21T14:53:01;5.35;;;2.83;;
17026;SDS011;8630;50.500;12.164;2022-08-21T14:55:30;3.40;;;3.10;;
17026;SDS011;8630;50.500;12.164;2022-08-21T14:58:20;2.60;;;2.33;;
17026;SDS011;8630;50.500;12.164;2022-08-21T15:00:49;4.45;;;2.92;;
17026;SDS011;8630;50.500;12.164;2022-08-21T15:03:17;4.35;;;3.30;;